createdAt,value
2018-01-16T19:49:49.808Z,975.5329
2018-01-16T19:50:49.591Z,975.5137
2018-01-16T19:51:49.640Z,975.5151
2018-01-16T19:52:49.591Z,975.4646
2018-01-16T19:53:49.587Z,975.4656
2018-01-16T19:54:49.594Z,975.496
2018-01-16T19:55:49.639Z,975.4984
2018-01-16T19:56:49.599Z,975.4816
2018-01-16T19:57:49.600Z,975.4752
2018-01-16T19:58:49.596Z,975.4902
2018-01-16T19:59:49.589Z,975.5316
2018-01-16T20:00:49.591Z,975.5243
2018-01-16T20:01:49.636Z,975.5117
2018-01-16T20:02:49.603Z,975.4852
2018-01-16T20:03:49.603Z,975.5234
2018-01-16T20:04:49.596Z,975.5157
2018-01-16T20:05:49.600Z,975.4808
2018-01-16T20:06:49.619Z,975.543
2018-01-16T20:07:49.735Z,975.5624
2018-01-16T20:08:49.601Z,975.5652
2018-01-16T20:09:49.609Z,975.5654
2018-01-16T20:10:49.683Z,975.5117
2018-01-16T20:11:49.602Z,975.5822
2018-01-16T20:12:49.612Z,975.5203
2018-01-16T20:13:49.646Z,975.5421
2018-01-16T20:14:49.611Z,975.5178
2018-01-16T20:15:49.601Z,975.5446
2018-01-16T20:16:49.621Z,975.5043
2018-01-16T20:17:49.616Z,975.5369
2018-01-16T20:18:49.608Z,975.4615
2018-01-16T20:19:49.728Z,975.4992
2018-01-16T20:20:49.624Z,975.564
2018-01-16T20:21:49.617Z,975.5854
2018-01-16T20:22:49.628Z,975.5745
2018-01-16T20:23:49.625Z,975.6471
2018-01-16T20:24:49.645Z,975.5768
2018-01-16T20:25:49.646Z,975.6171
2018-01-16T20:26:49.617Z,975.5898
2018-01-16T20:27:49.624Z,975.5383
2018-01-16T20:28:49.618Z,975.5626
2018-01-16T20:29:49.625Z,975.5762
2018-01-16T20:30:49.621Z,975.5706
2018-01-16T20:31:49.661Z,975.5433
2018-01-16T20:32:49.630Z,975.4677
2018-01-16T20:33:49.621Z,975.5243
2018-01-16T20:34:49.666Z,975.5215
2018-01-16T20:35:49.619Z,975.4757
2018-01-16T20:36:49.625Z,975.4512
2018-01-16T20:37:49.666Z,975.4673
2018-01-16T20:38:49.629Z,975.4808
2018-01-16T20:39:49.628Z,975.4509
2018-01-16T20:40:49.634Z,975.4938
2018-01-16T20:41:49.628Z,975.5397
2018-01-16T20:42:49.625Z,975.5287
2018-01-16T20:43:49.659Z,975.5582
2018-01-16T20:44:49.629Z,975.4745
2018-01-16T20:45:49.633Z,975.4312
2018-01-16T20:46:49.627Z,975.4395
2018-01-16T20:47:49.635Z,975.4933
2018-01-16T20:48:49.667Z,975.4366
2018-01-16T20:49:49.640Z,975.4743
2018-01-16T20:50:49.635Z,975.431
2018-01-16T20:51:49.635Z,975.4012
2018-01-16T20:52:49.636Z,975.4606
2018-01-16T20:53:49.642Z,975.3956
2018-01-16T20:54:49.676Z,975.4414
2018-01-16T20:55:49.640Z,975.4361
2018-01-16T20:56:49.635Z,975.5334
2018-01-16T20:57:49.650Z,975.5089
2018-01-16T20:58:49.651Z,975.4308
2018-01-16T20:59:49.658Z,975.4926
2018-01-16T21:00:49.772Z,975.514
2018-01-16T21:01:49.650Z,975.4359
2018-01-16T21:02:49.646Z,975.5274
2018-01-16T21:03:49.652Z,975.5083
2018-01-16T21:04:49.647Z,975.5516
2018-01-16T21:05:49.654Z,975.5651
2018-01-16T21:06:49.695Z,975.5218
2018-01-16T21:07:49.678Z,975.6133
2018-01-16T21:08:49.642Z,975.5485
2018-01-16T21:09:49.648Z,975.5862
2018-01-16T21:10:49.654Z,975.5996
2018-01-16T21:11:49.662Z,975.5673
2018-01-16T21:12:49.681Z,975.6292
2018-01-16T21:13:49.654Z,975.5753
2018-01-16T21:14:49.661Z,975.5753
2018-01-16T21:15:49.650Z,975.5535
2018-01-16T21:16:49.655Z,975.5667
2018-01-16T21:17:49.668Z,975.483
2018-01-16T21:18:49.701Z,975.5153
2018-01-16T21:19:49.657Z,975.5856
2018-01-16T21:20:49.671Z,975.5693
2018-01-16T21:21:49.661Z,975.6125
2018-01-16T21:22:49.665Z,975.564
2018-01-16T21:23:49.800Z,975.5071
2018-01-16T21:24:49.693Z,975.5636
2018-01-16T21:25:49.665Z,975.5608
2018-01-16T21:26:49.657Z,975.5444
2018-01-16T21:27:50.017Z,975.558
2018-01-16T21:28:49.723Z,975.442
2018-01-16T21:29:49.798Z,975.531
2018-01-16T21:30:49.702Z,975.5633
2018-01-16T21:31:49.666Z,975.5229
2018-01-16T21:32:49.665Z,975.5229
2018-01-16T21:33:49.672Z,975.4796
2018-01-16T21:34:49.667Z,975.5066
2018-01-16T21:35:49.877Z,975.5441
2018-01-16T21:36:49.793Z,975.541
2018-01-16T21:37:49.701Z,975.5382
2018-01-16T21:38:49.683Z,975.5195
2018-01-16T21:39:49.680Z,975.5516
2018-01-16T21:40:49.670Z,975.4896
2018-01-16T21:41:49.681Z,975.5084
2018-01-16T21:42:49.751Z,975.5812
2018-01-16T21:43:49.895Z,975.5677
2018-01-16T21:44:49.674Z,975.5488
2018-01-16T21:45:49.761Z,975.5137
2018-01-16T21:46:49.685Z,975.5731
2018-01-16T21:47:49.675Z,975.484
2018-01-16T21:48:49.731Z,975.4946
2018-01-16T21:49:49.932Z,975.4758
2018-01-16T21:50:49.851Z,975.3949
2018-01-16T21:51:49.687Z,975.3329
2018-01-16T21:52:49.692Z,975.3194
2018-01-16T21:53:49.932Z,975.2733
2018-01-16T21:54:49.976Z,975.2868
2018-01-16T21:55:49.687Z,975.346
2018-01-16T21:56:49.838Z,975.3569
2018-01-16T21:57:49.929Z,975.3649
2018-01-16T21:58:49.945Z,975.373
2018-01-16T21:59:50.136Z,975.4163
2018-01-16T22:00:49.875Z,975.4432
2018-01-16T22:01:49.700Z,975.4323
2018-01-16T22:02:49.699Z,975.4833
2018-01-16T22:03:49.735Z,975.4429
2018-01-16T22:04:49.691Z,975.4241
2018-01-16T22:05:49.806Z,975.4482
2018-01-16T22:06:49.722Z,975.3996
2018-01-16T22:07:49.693Z,975.3943
2018-01-16T22:08:49.763Z,975.4049
2018-01-16T22:09:49.728Z,975.3752
2018-01-16T22:10:49.880Z,975.3968
2018-01-16T22:11:49.715Z,975.4613
2018-01-16T22:12:49.696Z,975.4291
2018-01-16T22:13:49.706Z,975.5287
2018-01-16T22:14:49.701Z,975.5287
2018-01-16T22:15:49.701Z,975.5071
2018-01-16T22:16:49.821Z,975.5259
2018-01-16T22:17:49.700Z,975.5234
2018-01-16T22:18:49.705Z,975.5018
2018-01-16T22:19:49.708Z,975.4719
2018-01-16T22:20:49.703Z,975.5178
2018-01-16T22:21:49.703Z,975.5096
2018-01-16T22:22:49.743Z,975.5231
2018-01-16T22:23:49.710Z,975.5529
2018-01-16T22:24:49.713Z,975.5606
2018-01-16T22:25:49.713Z,975.5443
2018-01-16T22:26:49.715Z,975.5312
2018-01-16T22:27:49.709Z,975.6146
2018-01-16T22:28:49.742Z,975.5982
2018-01-16T22:29:49.720Z,975.6088
2018-01-16T22:30:49.713Z,975.555
2018-01-16T22:31:49.714Z,975.5011
2018-01-16T22:32:49.727Z,975.4769
2018-01-16T22:33:49.717Z,975.5198
2018-01-16T22:34:49.842Z,975.544
2018-01-16T22:35:49.720Z,975.544
2018-01-16T22:36:49.726Z,975.5035
2018-01-16T22:37:49.717Z,975.4872
2018-01-16T22:38:49.747Z,975.5599
2018-01-16T22:39:49.717Z,975.5383
2018-01-16T22:40:49.758Z,975.6004
2018-01-16T22:41:49.716Z,975.5383
2018-01-16T22:42:49.728Z,975.5652
2018-01-16T22:43:49.734Z,975.6351
2018-01-16T22:44:49.724Z,975.6216
2018-01-16T22:45:49.727Z,975.6702
2018-01-16T22:46:49.772Z,975.6702
2018-01-16T22:47:49.719Z,975.6538
2018-01-16T22:48:49.726Z,975.6457
2018-01-16T22:49:49.729Z,975.5461
2018-01-16T22:50:49.735Z,975.557
2018-01-16T22:51:49.731Z,975.6053
2018-01-16T22:52:49.771Z,975.584
2018-01-16T22:53:49.744Z,975.5139
2018-01-16T22:54:49.734Z,975.522
2018-01-16T22:55:49.735Z,975.5028
2018-01-16T22:56:49.735Z,975.4705
2018-01-16T22:57:49.741Z,975.484
2018-01-16T22:58:49.850Z,975.589
2018-01-16T22:59:49.733Z,975.5809
2018-01-16T23:00:49.740Z,975.4947
2018-01-16T23:01:49.740Z,975.5591
2018-01-16T23:02:49.739Z,975.5833
2018-01-16T23:03:49.899Z,975.6535
2018-01-16T23:04:49.781Z,975.6294
2018-01-16T23:05:49.744Z,975.6319
2018-01-16T23:06:49.745Z,975.629
2018-01-16T23:07:49.745Z,975.6021
2018-01-16T23:08:49.744Z,975.6507
2018-01-16T23:09:49.750Z,975.5429
2018-01-16T23:10:49.778Z,975.5968
2018-01-16T23:11:49.751Z,975.6453
2018-01-16T23:12:49.755Z,975.6319
2018-01-16T23:13:49.745Z,975.5616
2018-01-16T23:14:49.858Z,975.5429
2018-01-16T23:15:49.749Z,975.5939
2018-01-16T23:16:49.779Z,975.5832
2018-01-16T23:17:49.798Z,975.5779
2018-01-16T23:18:49.753Z,975.5779
2018-01-16T23:19:49.754Z,975.5293
2018-01-16T23:20:49.751Z,975.6021
2018-01-16T23:21:49.758Z,975.5453
2018-01-16T23:22:49.800Z,975.5616
2018-01-16T23:23:49.807Z,975.5159
2018-01-16T23:24:49.752Z,975.5535
2018-01-16T23:25:49.756Z,975.4404
2018-01-16T23:26:49.764Z,975.5346
2018-01-16T23:27:49.765Z,975.5992
2018-01-16T23:28:49.808Z,975.5535
2018-01-16T23:29:49.764Z,975.5829
2018-01-16T23:30:49.801Z,975.618
2018-01-16T23:31:49.768Z,975.5963
2018-01-16T23:32:49.773Z,975.591
2018-01-16T23:33:49.772Z,975.5371
2018-01-16T23:34:49.799Z,975.5425
2018-01-16T23:35:49.767Z,975.5719
2018-01-16T23:36:49.768Z,975.4939
2018-01-16T23:37:49.814Z,975.5181
2018-01-16T23:38:49.761Z,975.4319
2018-01-16T23:39:49.770Z,975.5368
2018-01-16T23:40:49.799Z,975.4588
2018-01-16T23:41:49.765Z,975.4155
2018-01-16T23:42:49.759Z,975.4584
2018-01-16T23:43:49.768Z,975.4208
2018-01-16T23:44:49.823Z,975.3858
2018-01-16T23:45:49.768Z,975.4261
2018-01-16T23:46:49.799Z,975.4882
2018-01-16T23:47:49.767Z,975.5368
2018-01-16T23:48:49.773Z,975.5098
2018-01-16T23:49:49.771Z,975.5527
2018-01-16T23:50:49.780Z,975.4988
2018-01-16T23:51:49.777Z,975.4637
2018-01-16T23:52:49.814Z,975.5204
2018-01-16T23:53:49.771Z,975.4637
2018-01-16T23:54:49.796Z,975.5016
2018-01-16T23:55:49.779Z,975.4343
2018-01-16T23:56:49.776Z,975.4531
2018-01-16T23:57:49.784Z,975.4748
2018-01-16T23:58:49.817Z,975.4748
2018-01-16T23:59:49.779Z,975.5123
